sensor_id;sensor_type;location;lat;lon;timestamp;pressure;altitude;pressure_sealevel;temperature;humidity
61682;BME280;47577;43.610;25.010;2023-02-01T00:01:49;100546.25;;;1.07;85.54
61682;BME280;47577;43.610;25.010;2023-02-01T00:04:15;100520.75;;;0.87;85.28
61682;BME280;47577;43.610;25.010;2023-02-01T00:06:41;100563.69;;;1.06;84.94
61682;BME280;47577;43.610;25.010;2023-02-01T00:09:06;100544.41;;;0.97;85.02
61682;BME280;47577;43.610;25.010;2023-02-01T00:14:08;100580.47;;;1.35;84.35
61682;BME280;47577;43.610;25.010;2023-02-01T00:16:33;100571.69;;;1.30;84.46
61682;BME280;47577;43.610;25.010;2023-02-01T00:19:02;100582.22;;;1.37;84.08
61682;BME280;47577;43.610;25.010;2023-02-01T00:21:30;100583.13;;;1.38;83.78
61682;BME280;47577;43.610;25.010;2023-02-01T00:23:56;100581.28;;;1.27;84.00
61682;BME280;47577;43.610;25.010;2023-02-01T01:05:09;100570.41;;;0.75;84.57
61682;BME280;47577;43.610;25.010;2023-02-01T01:23:08;100562.66;;;0.86;83.54
61682;BME280;47577;43.610;25.010;2023-02-01T01:25:38;100570.63;;;1.00;82.94
61682;BME280;47577;43.610;25.010;2023-02-01T01:28:05;100563.53;;;0.86;82.58
61682;BME280;47577;43.610;25.010;2023-02-01T01:30:34;100561.78;;;0.88;82.45
61682;BME280;47577;43.610;25.010;2023-02-01T01:33:00;100567.97;;;0.98;82.16
61682;BME280;47577;43.610;25.010;2023-02-01T01:35:26;100572.34;;;0.98;82.36
61682;BME280;47577;43.610;25.010;2023-02-01T01:43:12;100581.72;;;0.72;83.08
61682;BME280;47577;43.610;25.010;2023-02-01T01:45:39;100543.28;;;0.67;83.03
61682;BME280;47577;43.610;25.010;2023-02-01T01:48:19;100504.81;;;0.58;82.15
61682;BME280;47577;43.610;25.010;2023-02-01T01:50:55;100512.88;;;0.80;81.69
61682;BME280;47577;43.610;25.010;2023-02-01T01:53:27;100550.50;;;0.97;82.00
61682;BME280;47577;43.610;25.010;2023-02-01T01:55:54;100556.59;;;0.91;81.96
61682;BME280;47577;43.610;25.010;2023-02-01T02:00:56;100563.63;;;0.96;81.37
61682;BME280;47577;43.610;25.010;2023-02-01T02:03:33;100543.38;;;0.79;82.29
61682;BME280;47577;43.610;25.010;2023-02-01T02:06:01;100552.19;;;0.86;81.51
61682;BME280;47577;43.610;25.010;2023-02-01T02:08:28;100546.84;;;0.75;81.63
61682;BME280;47577;43.610;25.010;2023-02-01T02:10:54;100574.09;;;1.00;81.24
61682;BME280;47577;43.610;25.010;2023-02-01T02:13:38;100583.78;;;1.07;80.83
61682;BME280;47577;43.610;25.010;2023-02-01T03:00:33;100539.97;;;0.86;79.78
61682;BME280;47577;43.610;25.010;2023-02-01T03:03:19;100556.69;;;1.02;79.37
61682;BME280;47577;43.610;25.010;2023-02-01T04:38:18;100587.81;;;0.70;79.89
61682;BME280;47577;43.610;25.010;2023-02-01T06:50:59;100619.09;;;1.60;78.60
61682;BME280;47577;43.610;25.010;2023-02-01T06:53:25;100603.34;;;1.57;78.12
61682;BME280;47577;43.610;25.010;2023-02-01T07:11:22;100625.50;;;2.18;77.94
61682;BME280;47577;43.610;25.010;2023-02-01T07:13:48;100615.88;;;2.18;76.83
61682;BME280;47577;43.610;25.010;2023-02-01T07:16:17;100620.31;;;2.38;77.51
61682;BME280;47577;43.610;25.010;2023-02-01T07:18:43;100613.38;;;2.60;75.95
61682;BME280;47577;43.610;25.010;2023-02-01T07:21:10;100619.53;;;2.70;76.43
61682;BME280;47577;43.610;25.010;2023-02-01T07:23:35;100627.44;;;2.84;76.06
61682;BME280;47577;43.610;25.010;2023-02-01T07:26:04;100638.81;;;2.90;75.29
61682;BME280;47577;43.610;25.010;2023-02-01T07:28:30;100638.78;;;2.77;74.97
61682;BME280;47577;43.610;25.010;2023-02-01T07:31:05;100642.31;;;2.72;75.02
61682;BME280;47577;43.610;25.010;2023-02-01T07:33:31;100648.41;;;2.73;74.90
61682;BME280;47577;43.610;25.010;2023-02-01T07:35:57;100630.88;;;2.55;75.07
61682;BME280;47577;43.610;25.010;2023-02-01T07:38:23;100632.66;;;2.74;75.77
61682;BME280;47577;43.610;25.010;2023-02-01T07:40:49;100635.34;;;2.88;75.45
61682;BME280;47577;43.610;25.010;2023-02-01T07:43:15;100637.94;;;3.02;75.85
61682;BME280;47577;43.610;25.010;2023-02-01T07:45:41;100630.97;;;3.15;74.59
61682;BME280;47577;43.610;25.010;2023-02-01T07:48:07;100652.88;;;3.28;73.96
61682;BME280;47577;43.610;25.010;2023-02-01T07:50:32;100644.13;;;3.32;74.11
61682;BME280;47577;43.610;25.010;2023-02-01T07:52:59;100637.09;;;3.29;74.17
61682;BME280;47577;43.610;25.010;2023-02-01T07:55:26;100638.84;;;3.12;74.00
61682;BME280;47577;43.610;25.010;2023-02-01T07:57:56;100645.84;;;3.13;73.68
61682;BME280;47577;43.610;25.010;2023-02-01T08:00:22;100648.44;;;2.93;74.91
61682;BME280;47577;43.610;25.010;2023-02-01T08:03:06;100646.72;;;2.90;74.26
61682;BME280;47577;43.610;25.010;2023-02-01T08:05:32;100646.69;;;2.86;75.02
61682;BME280;47577;43.610;25.010;2023-02-01T08:07:58;100632.66;;;2.74;74.80
61682;BME280;47577;43.610;25.010;2023-02-01T08:10:25;100648.47;;;2.88;74.92
61682;BME280;47577;43.610;25.010;2023-02-01T08:12:50;100630.00;;;2.64;74.90
61682;BME280;47577;43.610;25.010;2023-02-01T08:15:17;100637.94;;;2.81;75.31
61682;BME280;47577;43.610;25.010;2023-02-01T08:17:50;100643.22;;;2.87;75.15
61682;BME280;47577;43.610;25.010;2023-02-01T08:20:17;100642.34;;;3.03;74.82
61682;BME280;47577;43.610;25.010;2023-02-01T08:22:43;100648.50;;;3.21;75.71
61682;BME280;47577;43.610;25.010;2023-02-01T08:25:10;100640.59;;;3.28;75.99
61682;BME280;47577;43.610;25.010;2023-02-01T08:27:37;100635.34;;;3.42;75.61
61682;BME280;47577;43.610;25.010;2023-02-01T08:30:04;100638.84;;;3.61;74.26
61682;BME280;47577;43.610;25.010;2023-02-01T08:32:33;100646.69;;;3.80;72.91
61682;BME280;47577;43.610;25.010;2023-02-01T08:34:59;100635.19;;;4.18;72.77
61682;BME280;47577;43.610;25.010;2023-02-01T08:37:25;100625.44;;;4.35;71.50
61682;BME280;47577;43.610;25.010;2023-02-01T08:39:50;100634.09;;;4.61;70.81
61682;BME280;47577;43.610;25.010;2023-02-01T08:42:17;100649.06;;;4.48;69.06
61682;BME280;47577;43.610;25.010;2023-02-01T08:45:03;100639.50;;;4.33;69.55
61682;BME280;47577;43.610;25.010;2023-02-01T08:47:30;100630.78;;;4.15;69.93
61682;BME280;47577;43.610;25.010;2023-02-01T08:49:55;100640.47;;;4.01;70.35
61682;BME280;47577;43.610;25.010;2023-02-01T08:52:22;100646.63;;;4.00;70.84
61682;BME280;47577;43.610;25.010;2023-02-01T08:54:48;100636.97;;;4.05;71.08
61682;BME280;47577;43.610;25.010;2023-02-01T08:57:13;100636.06;;;4.06;70.65
61682;BME280;47577;43.610;25.010;2023-02-01T08:59:39;100637.84;;;4.06;70.66
61682;BME280;47577;43.610;25.010;2023-02-01T09:02:05;100647.50;;;4.02;70.64
61682;BME280;47577;43.610;25.010;2023-02-01T09:04:31;100664.16;;;4.10;70.89
61682;BME280;47577;43.610;25.010;2023-02-01T09:06:56;100652.72;;;4.16;70.49
61682;BME280;47577;43.610;25.010;2023-02-01T09:09:23;100637.81;;;4.12;70.43
61682;BME280;47577;43.610;25.010;2023-02-01T09:11:49;100639.53;;;4.25;71.46
61682;BME280;47577;43.610;25.010;2023-02-01T09:14:16;100632.47;;;4.33;70.79
61682;BME280;47577;43.610;25.010;2023-02-01T09:16:42;100633.38;;;4.26;70.39
61682;BME280;47577;43.610;25.010;2023-02-01T09:19:07;100628.03;;;4.46;71.06
61682;BME280;47577;43.610;25.010;2023-02-01T09:21:34;100628.84;;;4.59;69.51
61682;BME280;47577;43.610;25.010;2023-02-01T09:24:01;100622.72;;;4.54;69.19
61682;BME280;47577;43.610;25.010;2023-02-01T09:26:27;100622.75;;;4.49;69.90
61682;BME280;47577;43.610;25.010;2023-02-01T09:28:52;100597.28;;;4.50;70.91
61682;BME280;47577;43.610;25.010;2023-02-01T09:31:19;100593.75;;;4.55;70.20
61682;BME280;47577;43.610;25.010;2023-02-01T09:33:45;100584.06;;;4.57;71.44
61682;BME280;47577;43.610;25.010;2023-02-01T09:36:10;100604.19;;;4.65;70.30
61682;BME280;47577;43.610;25.010;2023-02-01T09:38:36;100586.69;;;4.57;69.82
61682;BME280;47577;43.610;25.010;2023-02-01T09:43:55;100585.75;;;4.65;70.18
61682;BME280;47577;43.610;25.010;2023-02-01T09:46:27;100572.66;;;4.60;69.75
61682;BME280;47577;43.610;25.010;2023-02-01T09:48:57;100568.06;;;4.85;69.63
61682;BME280;47577;43.610;25.010;2023-02-01T09:51:31;100561.72;;;5.08;69.76
61682;BME280;47577;43.610;25.010;2023-02-01T09:54:13;100564.22;;;5.25;66.86
61682;BME280;47577;43.610;25.010;2023-02-01T09:57:05;100542.06;;;5.44;66.24
61682;BME280;47577;43.610;25.010;2023-02-01T09:59:47;100539.81;;;5.88;65.61
61682;BME280;47577;43.610;25.010;2023-02-01T10:02:21;100540.47;;;6.06;64.76
61682;BME280;47577;43.610;25.010;2023-02-01T10:04:49;100527.97;;;6.20;63.37
61682;BME280;47577;43.610;25.010;2023-02-01T10:07:41;100547.03;;;6.44;62.87
61682;BME280;47577;43.610;25.010;2023-02-01T10:18:40;100529.88;;;6.72;62.07
61682;BME280;47577;43.610;25.010;2023-02-01T10:24:28;100534.78;;;6.95;60.27
61682;BME280;47577;43.610;25.010;2023-02-01T10:27:27;100527.91;;;6.85;59.74
61682;BME280;47577;43.610;25.010;2023-02-01T10:29:58;100523.22;;;7.00;58.92
61682;BME280;47577;43.610;25.010;2023-02-01T10:32:30;100534.72;;;6.99;58.43
61682;BME280;47577;43.610;25.010;2023-02-01T10:34:59;100526.97;;;6.86;58.23
61682;BME280;47577;43.610;25.010;2023-02-01T10:37:33;100551.41;;;7.02;57.89
61682;BME280;47577;43.610;25.010;2023-02-01T10:40:10;100507.19;;;7.10;57.65
61682;BME280;47577;43.610;25.010;2023-02-01T10:42:39;100512.94;;;7.34;58.00
61682;BME280;47577;43.610;25.010;2023-02-01T10:45:05;100495.81;;;7.07;58.92
61682;BME280;47577;43.610;25.010;2023-02-01T10:47:31;100535.34;;;7.13;58.76
61682;BME280;47577;43.610;25.010;2023-02-01T10:52:51;100512.94;;;7.34;56.62
61682;BME280;47577;43.610;25.010;2023-02-01T10:55:39;100496.78;;;7.48;56.88
61682;BME280;47577;43.610;25.010;2023-02-01T10:58:10;100497.16;;;7.75;59.41
61682;BME280;47577;43.610;25.010;2023-02-01T11:00:53;100489.91;;;7.83;56.11
61682;BME280;47577;43.610;25.010;2023-02-01T11:03:44;100492.47;;;7.87;56.19
61682;BME280;47577;43.610;25.010;2023-02-01T11:08:48;100478.97;;;7.56;54.45
61682;BME280;47577;43.610;25.010;2023-02-01T11:11:15;100470.56;;;7.81;54.40
61682;BME280;47577;43.610;25.010;2023-02-01T11:13:41;100479.97;;;7.94;53.28
61682;BME280;47577;43.610;25.010;2023-02-01T11:16:12;100471.16;;;7.94;51.61
61682;BME280;47577;43.610;25.010;2023-02-01T11:18:40;100471.31;;;7.86;53.55
61682;BME280;47577;43.610;25.010;2023-02-01T11:21:08;100459.66;;;7.95;53.08
61682;BME280;47577;43.610;25.010;2023-02-01T11:23:40;100474.63;;;7.97;53.35
61682;BME280;47577;43.610;25.010;2023-02-01T11:26:24;100463.34;;;7.87;52.43
61682;BME280;47577;43.610;25.010;2023-02-01T11:28:54;100472.94;;;7.93;53.65
61682;BME280;47577;43.610;25.010;2023-02-01T11:31:23;100445.84;;;8.19;53.98
61682;BME280;47577;43.610;25.010;2023-02-01T11:33:57;100449.56;;;8.12;50.88
61682;BME280;47577;43.610;25.010;2023-02-01T11:36:29;100448.41;;;8.24;52.77
61682;BME280;47577;43.610;25.010;2023-02-01T11:39:31;100442.31;;;8.20;52.62
61682;BME280;47577;43.610;25.010;2023-02-01T11:42:17;100450.44;;;8.11;52.94
61682;BME280;47577;43.610;25.010;2023-02-01T11:44:44;100448.88;;;8.41;52.44
61682;BME280;47577;43.610;25.010;2023-02-01T11:47:24;100460.03;;;8.56;50.77
61682;BME280;47577;43.610;25.010;2023-02-01T11:49:55;100452.84;;;8.61;52.63
61682;BME280;47577;43.610;25.010;2023-02-01T11:58:27;100441.66;;;8.11;52.44
61682;BME280;47577;43.610;25.010;2023-02-01T12:23:33;100444.25;;;8.12;54.69
61682;BME280;47577;43.610;25.010;2023-02-01T12:31:42;100436.03;;;8.24;53.62
61682;BME280;47577;43.610;25.010;2023-02-01T12:34:37;100428.97;;;8.25;54.36
61682;BME280;47577;43.610;25.010;2023-02-01T12:37:23;100443.00;;;7.90;55.14
61682;BME280;47577;43.610;25.010;2023-02-01T12:43:22;100434.44;;;7.77;53.59
61682;BME280;47577;43.610;25.010;2023-02-01T12:45:56;100423.56;;;7.91;53.38
61682;BME280;47577;43.610;25.010;2023-02-01T12:51:12;100423.22;;;8.06;53.61
61682;BME280;47577;43.610;25.010;2023-02-01T12:53:59;100425.25;;;7.93;54.99
61682;BME280;47577;43.610;25.010;2023-02-01T12:58:58;100415.44;;;7.98;55.78
61682;BME280;47577;43.610;25.010;2023-02-01T13:01:39;100423.09;;;8.11;53.76
61682;BME280;47577;43.610;25.010;2023-02-01T13:04:49;100420.94;;;7.91;53.51
61682;BME280;47577;43.610;25.010;2023-02-01T13:07:21;100420.13;;;7.85;53.94
61682;BME280;47577;43.610;25.010;2023-02-01T13:10:01;100416.41;;;7.96;52.41
61682;BME280;47577;43.610;25.010;2023-02-01T13:12:36;100405.53;;;8.06;53.09
61682;BME280;47577;43.610;25.010;2023-02-01T13:17:47;100418.59;;;8.14;50.92
61682;BME280;47577;43.610;25.010;2023-02-01T13:20:32;100421.22;;;8.16;52.54
61682;BME280;47577;43.610;25.010;2023-02-01T13:23:11;100409.03;;;8.09;53.15
61682;BME280;47577;43.610;25.010;2023-02-01T13:25:47;100395.28;;;8.30;52.04
61682;BME280;47577;43.610;25.010;2023-02-01T13:28:47;100398.72;;;8.34;51.17
61682;BME280;47577;43.610;25.010;2023-02-01T13:43:28;100409.88;;;8.11;51.14
61682;BME280;47577;43.610;25.010;2023-02-01T13:45:51;100408.75;;;8.19;50.24
61682;BME280;47577;43.610;25.010;2023-02-01T13:48:22;100390.75;;;8.34;50.29
61682;BME280;47577;43.610;25.010;2023-02-01T13:50:54;100418.25;;;8.30;50.20
61682;BME280;47577;43.610;25.010;2023-02-01T13:53:27;100424.56;;;8.24;48.87
61682;BME280;47577;43.610;25.010;2023-02-01T13:56:09;100429.03;;;8.22;49.92
61682;BME280;47577;43.610;25.010;2023-02-01T13:58:39;100427.66;;;8.05;50.15
61682;BME280;47577;43.610;25.010;2023-02-01T14:16:40;100414.25;;;8.13;51.79
61682;BME280;47577;43.610;25.010;2023-02-01T14:19:33;100420.53;;;8.08;51.55
61682;BME280;47577;43.610;25.010;2023-02-01T14:24:41;100415.59;;;7.52;52.85
61682;BME280;47577;43.610;25.010;2023-02-01T14:29:40;100423.41;;;7.56;51.45
61682;BME280;47577;43.610;25.010;2023-02-01T14:32:23;100422.06;;;7.37;52.47
61682;BME280;47577;43.610;25.010;2023-02-01T14:34:55;100413.09;;;7.44;52.16
61682;BME280;47577;43.610;25.010;2023-02-01T14:37:28;100426.31;;;7.45;52.02
61682;BME280;47577;43.610;25.010;2023-02-01T14:40:34;100416.63;;;7.44;52.19
61682;BME280;47577;43.610;25.010;2023-02-01T14:42:54;100424.66;;;7.38;53.13
61682;BME280;47577;43.610;25.010;2023-02-01T14:47:54;100425.09;;;7.17;53.90
61682;BME280;47577;43.610;25.010;2023-02-01T14:58:57;100429.06;;;6.94;54.68
61682;BME280;47577;43.610;25.010;2023-02-01T15:01:38;100422.84;;;6.97;54.03
61682;BME280;47577;43.610;25.010;2023-02-01T15:04:13;100423.88;;;6.88;54.49
61682;BME280;47577;43.610;25.010;2023-02-01T15:06:56;100423.72;;;6.97;53.71
61682;BME280;47577;43.610;25.010;2023-02-01T15:09:38;100420.19;;;6.47;54.66
61682;BME280;47577;43.610;25.010;2023-02-01T15:14:41;100421.31;;;6.83;53.87
61682;BME280;47577;43.610;25.010;2023-02-01T15:17:22;100419.59;;;6.82;54.38
61682;BME280;47577;43.610;25.010;2023-02-01T15:19:56;100423.00;;;6.87;53.80
61682;BME280;47577;43.610;25.010;2023-02-01T15:22:24;100417.72;;;6.87;54.17
61682;BME280;47577;43.610;25.010;2023-02-01T15:24:57;100424.88;;;6.82;54.03
61682;BME280;47577;43.610;25.010;2023-02-01T15:27:24;100412.19;;;6.51;54.13
61682;BME280;47577;43.610;25.010;2023-02-01T15:29:50;100425.28;;;6.57;54.65
61682;BME280;47577;43.610;25.010;2023-02-01T15:32:37;100420.00;;;6.56;55.02
61682;BME280;47577;43.610;25.010;2023-02-01T15:35:45;100427.34;;;6.40;55.21
61682;BME280;47577;43.610;25.010;2023-02-01T15:41:17;100432.69;;;6.37;55.74
61682;BME280;47577;43.610;25.010;2023-02-01T15:46:20;100433.75;;;6.23;55.59
61682;BME280;47577;43.610;25.010;2023-02-01T15:48:54;100444.47;;;6.13;55.91
61682;BME280;47577;43.610;25.010;2023-02-01T15:51:22;100447.91;;;6.19;55.00
61682;BME280;47577;43.610;25.010;2023-02-01T15:54:00;100432.09;;;6.18;55.41
61682;BME280;47577;43.610;25.010;2023-02-01T15:56:29;100437.31;;;6.21;55.30
61682;BME280;47577;43.610;25.010;2023-02-01T15:59:01;100439.13;;;6.19;54.91
61682;BME280;47577;43.610;25.010;2023-02-01T16:01:29;100435.75;;;6.08;55.12
61682;BME280;47577;43.610;25.010;2023-02-01T16:04:19;100442.03;;;5.96;55.68
61682;BME280;47577;43.610;25.010;2023-02-01T16:09:18;100443.91;;;5.89;56.19
61682;BME280;47577;43.610;25.010;2023-02-01T16:11:56;100446.69;;;5.78;56.85
61682;BME280;47577;43.610;25.010;2023-02-01T16:14:23;100451.19;;;5.70;57.14
61682;BME280;47577;43.610;25.010;2023-02-01T16:16:51;100460.88;;;5.70;57.40
61682;BME280;47577;43.610;25.010;2023-02-01T16:19:17;100455.88;;;5.48;58.26
61682;BME280;47577;43.610;25.010;2023-02-01T16:21:43;100454.03;;;5.53;58.86
61682;BME280;47577;43.610;25.010;2023-02-01T16:24:09;100460.41;;;5.37;59.27
61682;BME280;47577;43.610;25.010;2023-02-01T16:26:35;100451.69;;;5.30;60.22
61682;BME280;47577;43.610;25.010;2023-02-01T16:29:01;100454.34;;;5.28;59.95
61682;BME280;47577;43.610;25.010;2023-02-01T16:31:34;100467.53;;;5.27;60.11
61682;BME280;47577;43.610;25.010;2023-02-01T16:34:00;100453.59;;;5.17;60.91
61682;BME280;47577;43.610;25.010;2023-02-01T16:36:26;100462.53;;;5.02;60.41
61682;BME280;47577;43.610;25.010;2023-02-01T16:38:54;100446.63;;;5.08;60.90
61682;BME280;47577;43.610;25.010;2023-02-01T16:41:22;100448.50;;;4.97;61.79
61682;BME280;47577;43.610;25.010;2023-02-01T16:43:52;100449.25;;;5.10;60.85
61682;BME280;47577;43.610;25.010;2023-02-01T16:46:25;100452.00;;;4.99;61.72
61682;BME280;47577;43.610;25.010;2023-02-01T16:48:57;100445.84;;;4.97;61.43
61682;BME280;47577;43.610;25.010;2023-02-01T16:51:24;100445.81;;;5.02;61.60
61682;BME280;47577;43.610;25.010;2023-02-01T16:53:51;100451.22;;;4.91;61.71
61682;BME280;47577;43.610;25.010;2023-02-01T16:56:25;100452.13;;;4.85;62.03
61682;BME280;47577;43.610;25.010;2023-02-01T16:58:54;100451.50;;;4.60;62.58
61682;BME280;47577;43.610;25.010;2023-02-01T17:01:20;100467.16;;;4.74;61.41
61682;BME280;47577;43.610;25.010;2023-02-01T17:03:46;100458.41;;;4.72;61.93
61682;BME280;47577;43.610;25.010;2023-02-01T17:06:17;100464.38;;;4.94;61.08
61682;BME280;47577;43.610;25.010;2023-02-01T17:08:50;100456.50;;;4.91;60.38
61682;BME280;47577;43.610;25.010;2023-02-01T17:11:16;100459.13;;;4.89;60.06
61682;BME280;47577;43.610;25.010;2023-02-01T17:13:43;100459.91;;;4.99;58.78
61682;BME280;47577;43.610;25.010;2023-02-01T17:16:26;100471.25;;;5.09;59.42
61682;BME280;47577;43.610;25.010;2023-02-01T17:19:12;100468.59;;;5.10;59.15
61682;BME280;47577;43.610;25.010;2023-02-01T17:21:57;100472.94;;;5.11;58.48
61682;BME280;47577;43.610;25.010;2023-02-01T17:24:27;100482.66;;;5.09;58.79
61682;BME280;47577;43.610;25.010;2023-02-01T17:26:53;100481.78;;;5.07;59.36
61682;BME280;47577;43.610;25.010;2023-02-01T17:29:19;100487.97;;;5.05;58.86
61682;BME280;47577;43.610;25.010;2023-02-01T17:31:49;100483.63;;;4.99;59.14
61682;BME280;47577;43.610;25.010;2023-02-01T17:34:15;100477.44;;;5.02;58.60
61682;BME280;47577;43.610;25.010;2023-02-01T17:36:42;100494.09;;;5.07;58.46
61682;BME280;47577;43.610;25.010;2023-02-01T17:39:09;100490.56;;;5.08;58.55
61682;BME280;47577;43.610;25.010;2023-02-01T17:41:36;100479.25;;;4.97;58.85
61682;BME280;47577;43.610;25.010;2023-02-01T17:44:03;100475.75;;;4.98;59.82
61682;BME280;47577;43.610;25.010;2023-02-01T17:46:30;100480.19;;;4.92;59.73
61682;BME280;47577;43.610;25.010;2023-02-01T17:48:56;100476.69;;;4.89;60.63
61682;BME280;47577;43.610;25.010;2023-02-01T17:51:26;100471.44;;;4.86;60.02
61682;BME280;47577;43.610;25.010;2023-02-01T17:53:53;100480.28;;;4.80;60.28
61682;BME280;47577;43.610;25.010;2023-02-01T17:56:22;100483.78;;;4.81;60.28
61682;BME280;47577;43.610;25.010;2023-02-01T17:58:50;100476.00;;;4.71;60.34
61682;BME280;47577;43.610;25.010;2023-02-01T18:01:20;100476.88;;;4.67;60.76
61682;BME280;47577;43.610;25.010;2023-02-01T18:03:46;100476.00;;;4.71;60.50
61682;BME280;47577;43.610;25.010;2023-02-01T18:06:15;100478.50;;;4.82;59.63
61682;BME280;47577;43.610;25.010;2023-02-01T18:08:42;100485.53;;;4.82;59.99
61682;BME280;47577;43.610;25.010;2023-02-01T18:11:11;100477.66;;;4.80;59.35
61682;BME280;47577;43.610;25.010;2023-02-01T18:13:37;100476.75;;;4.83;59.86
61682;BME280;47577;43.610;25.010;2023-02-01T18:16:03;100474.19;;;4.75;60.18
61682;BME280;47577;43.610;25.010;2023-02-01T18:18:30;100486.44;;;4.79;59.61
61682;BME280;47577;43.610;25.010;2023-02-01T18:20:58;100483.16;;;4.54;60.27
61682;BME280;47577;43.610;25.010;2023-02-01T18:23:25;100489.84;;;4.89;59.40
61682;BME280;47577;43.610;25.010;2023-02-01T18:25:51;100473.19;;;4.88;59.28
61682;BME280;47577;43.610;25.010;2023-02-01T18:28:18;100487.22;;;4.89;59.01
61682;BME280;47577;43.610;25.010;2023-02-01T18:30:46;100492.50;;;4.87;59.63
61682;BME280;47577;43.610;25.010;2023-02-01T18:33:14;100480.19;;;4.91;59.42
61682;BME280;47577;43.610;25.010;2023-02-01T18:35:41;100477.66;;;4.79;59.50
61682;BME280;47577;43.610;25.010;2023-02-01T18:38:07;100476.81;;;4.76;59.86
61682;BME280;47577;43.610;25.010;2023-02-01T18:40:38;100478.66;;;4.65;60.64
61682;BME280;47577;43.610;25.010;2023-02-01T18:43:04;100484.78;;;4.67;60.39
61682;BME280;47577;43.610;25.010;2023-02-01T18:45:34;100476.09;;;4.57;61.36
61682;BME280;47577;43.610;25.010;2023-02-01T18:48:01;100477.88;;;4.55;60.88
61682;BME280;47577;43.610;25.010;2023-02-01T18:50:31;100475.25;;;4.54;60.80
61682;BME280;47577;43.610;25.010;2023-02-01T18:52:59;100478.81;;;4.44;60.96
61682;BME280;47577;43.610;25.010;2023-02-01T18:55:27;100477.97;;;4.38;61.71
61682;BME280;47577;43.610;25.010;2023-02-01T18:57:54;100471.06;;;4.27;62.15
61682;BME280;47577;43.610;25.010;2023-02-01T19:00:21;100485.91;;;4.35;61.34
61682;BME280;47577;43.610;25.010;2023-02-01T19:02:47;100469.25;;;4.33;62.81
61682;BME280;47577;43.610;25.010;2023-02-01T19:05:13;100476.34;;;4.24;62.75
61682;BME280;47577;43.610;25.010;2023-02-01T19:07:40;100472.84;;;4.21;63.75
61682;BME280;47577;43.610;25.010;2023-02-01T19:10:09;100466.66;;;4.26;62.62
61682;BME280;47577;43.610;25.010;2023-02-01T19:12:35;100465.78;;;4.27;62.32
61682;BME280;47577;43.610;25.010;2023-02-01T19:15:04;100470.22;;;4.20;63.60
61682;BME280;47577;43.610;25.010;2023-02-01T19:17:31;100468.44;;;4.20;63.76
61682;BME280;47577;43.610;25.010;2023-02-01T19:19:56;100477.28;;;4.13;63.89
61682;BME280;47577;43.610;25.010;2023-02-01T19:22:25;100477.34;;;4.04;64.36
61682;BME280;47577;43.610;25.010;2023-02-01T19:24:52;100482.59;;;4.02;64.18
61682;BME280;47577;43.610;25.010;2023-02-01T19:27:18;100478.28;;;3.91;64.58
61682;BME280;47577;43.610;25.010;2023-02-01T19:29:44;100478.28;;;3.91;64.57
61682;BME280;47577;43.610;25.010;2023-02-01T19:32:12;100480.84;;;4.00;64.86
61682;BME280;47577;43.610;25.010;2023-02-01T19:34:38;100482.63;;;3.99;64.39
61682;BME280;47577;43.610;25.010;2023-02-01T19:37:07;100487.03;;;3.96;63.50
61682;BME280;47577;43.610;25.010;2023-02-01T19:39:33;100483.53;;;3.97;64.31
61682;BME280;47577;43.610;25.010;2023-02-01T19:42:04;100473.03;;;3.92;63.59
61682;BME280;47577;43.610;25.010;2023-02-01T19:44:32;100487.88;;;3.96;63.98
61682;BME280;47577;43.610;25.010;2023-02-01T19:46:58;100487.00;;;4.03;63.37
61682;BME280;47577;43.610;25.010;2023-02-01T19:49:24;100482.56;;;4.07;63.57
61682;BME280;47577;43.610;25.010;2023-02-01T19:51:50;100482.56;;;4.10;62.94
61682;BME280;47577;43.610;25.010;2023-02-01T19:54:16;100480.78;;;4.12;64.19
61682;BME280;47577;43.610;25.010;2023-02-01T19:56:42;100481.66;;;4.14;63.33
61682;BME280;47577;43.610;25.010;2023-02-01T19:59:10;100484.28;;;4.14;62.96
61682;BME280;47577;43.610;25.010;2023-02-01T20:01:37;100480.75;;;4.17;62.98
61682;BME280;47577;43.610;25.010;2023-02-01T20:04:03;100482.47;;;4.24;61.86
61682;BME280;47577;43.610;25.010;2023-02-01T20:06:36;100482.56;;;4.09;63.12
61682;BME280;47577;43.610;25.010;2023-02-01T20:09:03;100489.47;;;4.28;62.08
61682;BME280;47577;43.610;25.010;2023-02-01T20:11:29;100474.59;;;4.19;62.97
61682;BME280;47577;43.610;25.010;2023-02-01T20:13:55;100485.91;;;4.32;62.25
61682;BME280;47577;43.610;25.010;2023-02-01T20:16:23;100486.00;;;4.21;62.90
61682;BME280;47577;43.610;25.010;2023-02-01T20:18:49;100496.50;;;4.25;62.52
61682;BME280;47577;43.610;25.010;2023-02-01T20:21:15;100484.19;;;4.31;62.69
61682;BME280;47577;43.610;25.010;2023-02-01T20:23:43;100483.28;;;4.34;62.97
61682;BME280;47577;43.610;25.010;2023-02-01T20:26:12;100476.34;;;4.24;63.07
61682;BME280;47577;43.610;25.010;2023-02-01T20:28:38;100485.09;;;4.21;63.32
61682;BME280;47577;43.610;25.010;2023-02-01T20:31:05;100470.19;;;4.23;62.89
61682;BME280;47577;43.610;25.010;2023-02-01T20:33:31;100473.69;;;4.24;62.28
61682;BME280;47577;43.610;25.010;2023-02-01T20:35:58;100460.56;;;4.19;62.10
61682;BME280;47577;43.610;25.010;2023-02-01T20:38:25;100467.47;;;4.35;62.24
61682;BME280;47577;43.610;25.010;2023-02-01T20:40:50;100473.56;;;4.42;61.51
61682;BME280;47577;43.610;25.010;2023-02-01T20:43:17;100469.16;;;4.47;61.47
61682;BME280;47577;43.610;25.010;2023-02-01T20:45:43;100461.28;;;4.43;61.15
61682;BME280;47577;43.610;25.010;2023-02-01T20:48:10;100473.53;;;4.47;60.84
61682;BME280;47577;43.610;25.010;2023-02-01T20:50:37;100470.84;;;4.56;61.91
61682;BME280;47577;43.610;25.010;2023-02-01T20:53:03;100469.03;;;4.61;61.39
61682;BME280;47577;43.610;25.010;2023-02-01T20:55:29;100468.09;;;4.68;60.17